Pocatello, ID

7:10 AM MDT on August 28, 2015 (GMT -0600)
University Area | | Change Station
CLOSE
Current Station
Personal Weather Station
Location: Pocatello, ID
Elevation: 4659 ft
Nearby Weather Stations

Elev 4659 ft 42.86 °N, 112.42 °W | Updated 12 seconds ago

Clear
Clear
56.7 °F
Feels Like 56.7 °F
N
6.9
Wind Variable Wind from South
Gusts 13.6 mph

Today
High -- | Low -- °F
--% Chance of Precip.
Yesterday
High -- | Low -- °F
Precip. -- in
6:49 AM 8:11 PM
Waxing Gibbous, 98% visible
Pressure 30.06 in
Visibility 10.0 miles
Clouds Clear
Dew Point 45 °F
Humidity 66%
Rainfall 0.00 in
Snow Depth Not available.
UV 0 out of 12
Pollen 8.70 out of 12
Air Quality Not available.
Flu Activity Not available.
METAR KPIH 281253Z 11005KT 10SM CLR 12/07 A3019 RMK AO2 SLP180 T01220067
Pressure 30.06 in
Visibility 10.0 miles
Clouds Clear
Dew Point 45 °F
Humidity 66%
Rainfall 0.00 in
Snow Depth Not available.
UV 0 out of 12
Pollen 8.70 out of 12
Air Quality Not available.
Flu Activity Not available.
METAR KPIH 281253Z 11005KT 10SM CLR 12/07 A3019 RMK AO2 SLP180 T01220067

10-Day Weather Forecast

×

Almanac

Astronomy

Aug. 28, 2015 Rise Set
Actual Time
Civil Twilight
Nautical Twilight
Astronomical Twilight
Moon
Length of Visible Light
Length of Day
Tomorrow will be .
, % of the Moon is Illuminated

Today's Extremes

State Highs State Lows

Community

WunderPhotos

Upload Photos

1,850,375 photos uploaded!

WunderBlogs® & News

Nearby

Air Quality

  Air Quality AQ Index Pollutant
Not available.

Snow Depth

Station Depth Elevation

Earthquake Activity

City Distance Mag. Time & Date
Minimum magnitude displayed is 2.5.

Coastal Water Temperatures

Place Temperature

Stations

Nearby Weather Stations

Station Location Temp. Windchill Dew Point Humidity Wind Precip. Elev Updated Type